Time;durP1;ratioP1;P1;durP2;ratioP2;P2;SDS_P1;SDS_P2;PMS_P1;PMS_P2;Temp;Humidity;BMP_temperature;BMP_pressure;BME280_temperature;BME280_humidity;BME280_pressure;Samples;Min_cycle;Max_cycle;Signal;HPM_P1;HPM_P2
2023/12/20 00:00:53;;;;;;;17.25;2.92;;;;;;;;;;5072572;28;20059;-84
2023/12/20 00:03:38;;;;;;;18.80;2.35;;;;;;;;;;5073237;28;20079;-87
2023/12/20 00:06:23;;;;;;;15.68;2.05;;;;;;;;;;5073322;28;20035;-86
2023/12/20 00:09:07;;;;;;;27.95;2.63;;;;;;;;;;5072655;28;20121;-86
2023/12/20 00:11:52;;;;;;;14.23;4.00;;;;;;;;;;5073289;28;20457;-86
2023/12/20 00:14:36;;;;;;;9.25;2.00;;;;;;;;;;5073111;28;20035;-86
2023/12/20 00:17:21;;;;;;;16.42;2.22;;;;;;;;;;5072727;28;20499;-85
2023/12/20 00:20:06;;;;;;;12.02;2.45;;;;;;;;;;5072468;28;20116;-87
2023/12/20 00:22:50;;;;;;;18.00;4.43;;;;;;;;;;5072793;28;20043;-87
2023/12/20 00:25:35;;;;;;;12.20;2.35;;;;;;;;;;5072897;28;20135;-86
2023/12/20 00:28:20;;;;;;;16.25;3.80;;;;;;;;;;5072376;28;20036;-87
2023/12/20 00:31:04;;;;;;;16.73;2.30;;;;;;;;;;5085682;28;20047;-87
2023/12/20 00:33:49;;;;;;;19.90;2.40;;;;;;;;;;5072127;28;20031;-87
2023/12/20 00:36:33;;;;;;;13.75;2.17;;;;;;;;;;5072578;28;20043;-87
2023/12/20 00:39:18;;;;;;;15.52;2.22;;;;;;;;;;5085550;28;20047;-86
2023/12/20 00:42:02;;;;;;;18.35;2.22;;;;;;;;;;5071530;28;20043;-88
2023/12/20 00:44:47;;;;;;;18.05;2.40;;;;;;;;;;5072106;28;20063;-85
2023/12/20 00:47:32;;;;;;;18.42;3.00;;;;;;;;;;5061205;28;20151;-87
2023/12/20 00:50:16;;;;;;;16.17;2.75;;;;;;;;;;5042537;28;20048;-87
2023/12/20 00:53:01;;;;;;;14.35;3.17;;;;;;;;;;5071938;28;20112;-86
2023/12/20 00:55:46;;;;;;;14.18;2.50;;;;;;;;;;5072288;28;20032;-85
2023/12/20 00:58:30;;;;;;;25.92;3.40;;;;;;;;;;5052238;28;20067;-86
2023/12/20 01:01:15;;;;;;;19.50;2.60;;;;;;;;;;5071625;28;20063;-87
2023/12/20 01:04:00;;;;;;;19.30;3.33;;;;;;;;;;5071792;28;20085;-83
2023/12/20 01:06:45;;;;;;;19.40;3.08;;;;;;;;;;5072194;28;20410;-87
2023/12/20 01:09:30;;;;;;;14.63;2.42;;;;;;;;;;5085121;28;20119;-85
2023/12/20 01:12:14;;;;;;;28.88;3.20;;;;;;;;;;5083981;28;20505;-87
2023/12/20 01:14:58;;;;;;;15.32;2.88;;;;;;;;;;5071949;28;20447;-88
2023/12/20 01:17:43;;;;;;;16.67;4.28;;;;;;;;;;5071646;28;20045;-86
2023/12/20 01:20:27;;;;;;;16.05;2.88;;;;;;;;;;5084861;28;20050;-87
2023/12/20 01:23:12;;;;;;;18.08;2.88;;;;;;;;;;5071228;28;20089;-87
2023/12/20 01:25:59;;;;;;;19.65;2.78;;;;;;;;;;5085268;28;20062;-86
2023/12/20 01:28:44;;;;;;;25.77;3.55;;;;;;;;;;5071862;28;20031;-87
2023/12/20 01:31:28;;;;;;;17.02;2.58;;;;;;;;;;5071560;28;20451;-87
2023/12/20 01:34:13;;;;;;;16.30;2.45;;;;;;;;;;5070713;28;20124;-87
2023/12/20 01:36:58;;;;;;;19.75;2.60;;;;;;;;;;5071552;28;20059;-86
2023/12/20 01:39:42;;;;;;;22.13;2.70;;;;;;;;;;5071230;28;20040;-87
2023/12/20 01:42:27;;;;;;;24.05;3.08;;;;;;;;;;5060035;28;20506;-86
2023/12/20 01:45:11;;;;;;;20.90;3.20;;;;;;;;;;5069959;28;20059;-86
2023/12/20 01:47:58;;;;;;;17.73;2.53;;;;;;;;;;5071800;28;20059;-87
2023/12/20 01:50:43;;;;;;;19.42;2.60;;;;;;;;;;5071307;28;20031;-86
2023/12/20 01:53:29;;;;;;;20.10;2.83;;;;;;;;;;5055775;28;20055;-87
2023/12/20 01:56:14;;;;;;;20.58;3.05;;;;;;;;;;5071121;28;20054;-86
2023/12/20 01:58:59;;;;;;;23.02;3.00;;;;;;;;;;5071386;28;20038;-86
2023/12/20 02:01:43;;;;;;;15.23;2.38;;;;;;;;;;5070959;28;20058;-86
2023/12/20 02:04:28;;;;;;;17.70;2.72;;;;;;;;;;5058781;28;20032;-86
2023/12/20 02:07:12;;;;;;;18.90;3.10;;;;;;;;;;5070675;28;20484;-86
2023/12/20 02:09:57;;;;;;;20.05;4.22;;;;;;;;;;5071539;28;20307;-86
2023/12/20 02:12:42;;;;;;;18.65;2.83;;;;;;;;;;5071410;28;20436;-86
2023/12/20 02:15:26;;;;;;;23.85;4.45;;;;;;;;;;5070746;28;20083;-87
2023/12/20 02:18:15;;;;;;;27.67;3.00;;;;;;;;;;5070134;28;20036;-84
2023/12/20 02:20:59;;;;;;;20.55;3.28;;;;;;;;;;5078514;28;20398;-86
2023/12/20 02:23:44;;;;;;;15.60;2.65;;;;;;;;;;5071024;28;20039;-85
2023/12/20 02:26:29;;;;;;;22.25;3.17;;;;;;;;;;5070644;28;20074;-86
2023/12/20 02:29:13;;;;;;;16.45;3.63;;;;;;;;;;5070798;28;20094;-85
2023/12/20 02:31:58;;;;;;;21.33;3.05;;;;;;;;;;5071111;28;20454;-86
2023/12/20 02:34:42;;;;;;;24.10;3.08;;;;;;;;;;5071248;28;20086;-86
2023/12/20 02:37:27;;;;;;;18.55;3.20;;;;;;;;;;5070704;28;20063;-87
2023/12/20 02:40:12;;;;;;;18.65;3.03;;;;;;;;;;5064944;28;20043;-87
2023/12/20 02:42:56;;;;;;;28.45;4.00;;;;;;;;;;5057553;28;20055;-86
2023/12/20 02:45:41;;;;;;;12.35;3.00;;;;;;;;;;5070831;28;20063;-86
2023/12/20 02:48:25;;;;;;;22.13;4.15;;;;;;;;;;5081544;28;20059;-87
2023/12/20 02:51:10;;;;;;;22.15;3.45;;;;;;;;;;5058962;28;20051;-84
2023/12/20 02:53:54;;;;;;;18.05;3.05;;;;;;;;;;5070521;28;20078;-87
2023/12/20 02:56:39;;;;;;;19.65;4.45;;;;;;;;;;5072329;28;20039;-87
2023/12/20 02:59:23;;;;;;;22.23;4.32;;;;;;;;;;5073413;28;20073;-86
2023/12/20 03:02:08;;;;;;;18.83;3.38;;;;;;;;;;5073232;28;20511;-87
2023/12/20 03:04:52;;;;;;;24.30;3.20;;;;;;;;;;5087870;28;20031;-87
2023/12/20 03:07:38;;;;;;;19.75;3.25;;;;;;;;;;5073390;28;20105;-87
2023/12/20 03:10:23;;;;;;;20.92;3.58;;;;;;;;;;5073708;28;20487;-87
2023/12/20 03:13:08;;;;;;;25.35;3.88;;;;;;;;;;5073967;28;20427;-87
2023/12/20 03:15:52;;;;;;;20.38;3.17;;;;;;;;;;5074122;28;20043;-87
2023/12/20 03:18:37;;;;;;;29.20;3.97;;;;;;;;;;5073394;28;20082;-87
2023/12/20 03:21:21;;;;;;;28.77;4.22;;;;;;;;;;5073401;28;20542;-86
2023/12/20 03:24:06;;;;;;;25.08;4.93;;;;;;;;;;5074222;28;20413;-86
2023/12/20 03:26:50;;;;;;;26.50;4.47;;;;;;;;;;5074159;28;20170;-87
2023/12/20 03:29:35;;;;;;;23.73;4.35;;;;;;;;;;5085256;28;20043;-86
2023/12/20 03:32:19;;;;;;;27.30;5.32;;;;;;;;;;5073983;28;20039;-84
2023/12/20 03:35:04;;;;;;;29.20;4.22;;;;;;;;;;5073271;28;20055;-87
2023/12/20 03:37:48;;;;;;;22.35;3.22;;;;;;;;;;5066730;28;20131;-87
2023/12/20 03:40:33;;;;;;;27.10;4.55;;;;;;;;;;5073250;28;20535;-87
2023/12/20 03:43:18;;;;;;;15.13;2.95;;;;;;;;;;5073492;28;20075;-87
2023/12/20 03:46:03;;;;;;;29.63;4.53;;;;;;;;;;5073851;28;20499;-87
2023/12/20 03:48:48;;;;;;;25.85;4.15;;;;;;;;;;5073213;28;20510;-87
2023/12/20 03:51:33;;;;;;;30.23;4.28;;;;;;;;;;5073266;28;20154;-86
2023/12/20 03:54:17;;;;;;;39.65;4.18;;;;;;;;;;5073592;28;20043;-87
2023/12/20 03:57:02;;;;;;;21.98;4.28;;;;;;;;;;5073344;28;20082;-87
2023/12/20 03:59:47;;;;;;;26.63;4.90;;;;;;;;;;5061991;28;20079;-88
2023/12/20 04:02:31;;;;;;;28.63;4.28;;;;;;;;;;5072079;28;20127;-88
2023/12/20 04:05:16;;;;;;;24.63;3.75;;;;;;;;;;5073207;28;20103;-87
2023/12/20 04:08:02;;;;;;;25.38;4.18;;;;;;;;;;5072545;28;20120;-88
2023/12/20 04:10:47;;;;;;;41.05;5.03;;;;;;;;;;5072304;28;20964;-87
2023/12/20 04:13:31;;;;;;;28.13;4.55;;;;;;;;;;5072697;28;20067;-87
2023/12/20 04:16:16;;;;;;;27.92;4.45;;;;;;;;;;5073166;28;20044;-87
2023/12/20 04:19:01;;;;;;;26.00;3.63;;;;;;;;;;5072894;28;20071;-87
2023/12/20 04:21:45;;;;;;;31.88;4.50;;;;;;;;;;5075806;28;20500;-87
2023/12/20 04:24:29;;;;;;;22.52;4.35;;;;;;;;;;5072336;28;20042;-87
2023/12/20 04:27:14;;;;;;;24.70;3.92;;;;;;;;;;5073018;28;20051;-88
2023/12/20 04:29:58;;;;;;;23.95;3.72;;;;;;;;;;5072554;28;20040;-87
2023/12/20 04:32:43;;;;;;;20.83;4.53;;;;;;;;;;5072240;28;20043;-87
2023/12/20 04:35:27;;;;;;;31.00;5.18;;;;;;;;;;5072912;28;20039;-87
2023/12/20 04:38:12;;;;;;;23.95;4.50;;;;;;;;;;5072543;28;20036;-87
2023/12/20 04:40:56;;;;;;;19.58;3.50;;;;;;;;;;5072358;28;20399;-88
2023/12/20 04:43:41;;;;;;;25.70;4.57;;;;;;;;;;5060603;28;20040;-87
2023/12/20 04:46:26;;;;;;;25.23;4.15;;;;;;;;;;5072734;28;20511;-86
2023/12/20 04:49:10;;;;;;;18.67;3.38;;;;;;;;;;5060365;28;20040;-86
2023/12/20 04:51:55;;;;;;;26.70;4.63;;;;;;;;;;5071505;28;20052;-88
2023/12/20 04:54:40;;;;;;;28.65;3.78;;;;;;;;;;5071969;28;20043;-88
2023/12/20 04:57:25;;;;;;;27.88;4.80;;;;;;;;;;5085608;28;20157;-88
2023/12/20 05:00:09;;;;;;;36.15;4.60;;;;;;;;;;5072119;28;20047;-86
2023/12/20 05:02:54;;;;;;;22.85;3.75;;;;;;;;;;5071297;28;20472;-87
2023/12/20 05:05:38;;;;;;;23.45;4.28;;;;;;;;;;5071520;28;20035;-88
2023/12/20 05:08:23;;;;;;;32.70;4.63;;;;;;;;;;5072188;28;20496;-87
2023/12/20 05:11:07;;;;;;;22.73;4.63;;;;;;;;;;5071674;28;20035;-87
2023/12/20 05:13:52;;;;;;;26.23;3.63;;;;;;;;;;5070786;28;20116;-86
2023/12/20 05:16:36;;;;;;;23.20;3.75;;;;;;;;;;5084843;28;20488;-85
2023/12/20 05:19:21;;;;;;;27.50;4.35;;;;;;;;;;5071702;28;20039;-87
2023/12/20 05:22:06;;;;;;;30.73;5.00;;;;;;;;;;5071510;28;20051;-87
2023/12/20 05:24:50;;;;;;;28.50;3.83;;;;;;;;;;5058454;28;20044;-87
2023/12/20 05:27:35;;;;;;;26.52;5.22;;;;;;;;;;5071612;28;20081;-84
2023/12/20 05:30:19;;;;;;;27.27;4.00;;;;;;;;;;5071765;28;20039;-87
2023/12/20 05:33:04;;;;;;;37.20;7.43;;;;;;;;;;5071264;28;20093;-87
2023/12/20 05:35:48;;;;;;;28.83;4.10;;;;;;;;;;5070610;28;20048;-86
2023/12/20 05:38:33;;;;;;;19.40;3.75;;;;;;;;;;5071704;28;20123;-85
2023/12/20 05:41:17;;;;;;;30.05;4.50;;;;;;;;;;5056274;28;20184;-87
2023/12/20 05:44:02;;;;;;;24.00;3.92;;;;;;;;;;5062303;28;20043;-86
2023/12/20 05:46:46;;;;;;;22.63;4.40;;;;;;;;;;5070568;28;20056;-86
2023/12/20 05:49:31;;;;;;;18.30;3.70;;;;;;;;;;5071625;28;20052;-87
2023/12/20 05:52:16;;;;;;;18.23;3.40;;;;;;;;;;5071374;28;20062;-87
2023/12/20 05:55:03;;;;;;;24.17;3.65;;;;;;;;;;5068478;28;20039;-88
2023/12/20 05:57:48;;;;;;;31.02;5.95;;;;;;;;;;5052124;28;20090;-83
2023/12/20 06:00:32;;;;;;;25.92;3.72;;;;;;;;;;5057230;28;20524;-85
2023/12/20 06:03:17;;;;;;;26.05;3.85;;;;;;;;;;5064266;28;20499;-86
2023/12/20 06:06:06;;;;;;;43.38;6.13;;;;;;;;;;5051649;28;20039;-86
2023/12/20 06:08:50;;;;;;;24.10;4.68;;;;;;;;;;5054107;28;20075;-87
2023/12/20 06:11:35;;;;;;;21.50;3.67;;;;;;;;;;5053529;28;20508;-87
2023/12/20 06:14:19;;;;;;;27.90;5.05;;;;;;;;;;5053216;28;20084;-86
2023/12/20 06:17:04;;;;;;;25.23;4.25;;;;;;;;;;5053483;28;20079;-86
2023/12/20 06:19:48;;;;;;;36.88;4.50;;;;;;;;;;5063545;28;20063;-86
2023/12/20 06:22:34;;;;;;;23.55;4.15;;;;;;;;;;5056348;28;20542;-86
2023/12/20 06:25:19;;;;;;;37.60;4.50;;;;;;;;;;5058331;28;20147;-87
2023/12/20 06:28:04;;;;;;;16.33;3.20;;;;;;;;;;5060886;28;20047;-86
2023/12/20 06:30:49;;;;;;;33.65;4.60;;;;;;;;;;5068862;28;20458;-87
2023/12/20 06:33:34;;;;;;;21.23;4.03;;;;;;;;;;5074485;28;20040;-86
2023/12/20 06:36:18;;;;;;;24.52;4.50;;;;;;;;;;5074371;28;20085;-86
2023/12/20 06:39:04;;;;;;;27.70;3.33;;;;;;;;;;5073963;28;20550;-86
2023/12/20 06:41:49;;;;;;;30.33;4.95;;;;;;;;;;5073956;28;20044;-86
2023/12/20 06:44:34;;;;;;;22.15;4.80;;;;;;;;;;5074350;28;20487;-86
2023/12/20 06:47:19;;;;;;;18.52;4.40;;;;;;;;;;5073887;28;20507;-86
2023/12/20 06:50:03;;;;;;;22.08;4.43;;;;;;;;;;5073579;28;20086;-87
2023/12/20 06:52:48;;;;;;;31.70;3.72;;;;;;;;;;5063403;28;20094;-83
2023/12/20 06:55:33;;;;;;;21.38;4.25;;;;;;;;;;5056902;28;20035;-86
2023/12/20 06:58:17;;;;;;;26.15;4.57;;;;;;;;;;5058897;28;20443;-86
2023/12/20 07:01:02;;;;;;;27.80;5.85;;;;;;;;;;5057982;28;20052;-85
2023/12/20 07:03:47;;;;;;;21.45;4.60;;;;;;;;;;5060003;28;20101;-85
2023/12/20 07:06:31;;;;;;;23.00;3.30;;;;;;;;;;5064320;28;20090;-85
2023/12/20 07:09:16;;;;;;;21.33;4.03;;;;;;;;;;5065812;28;20047;-85
2023/12/20 07:12:00;;;;;;;31.23;4.95;;;;;;;;;;5070190;28;20401;-84
2023/12/20 07:14:45;;;;;;;29.20;4.80;;;;;;;;;;5061108;28;20052;-85
2023/12/20 07:17:30;;;;;;;25.45;3.85;;;;;;;;;;5065832;28;20036;-85
2023/12/20 07:20:15;;;;;;;20.90;4.68;;;;;;;;;;5064372;28;20412;-84
2023/12/20 07:23:00;;;;;;;21.33;3.35;;;;;;;;;;5070465;28;20048;-84
2023/12/20 07:25:45;;;;;;;28.05;5.40;;;;;;;;;;5064743;28;20526;-85
2023/12/20 07:28:29;;;;;;;17.00;3.72;;;;;;;;;;5063451;28;20116;-85
2023/12/20 07:31:16;;;;;;;25.70;4.45;;;;;;;;;;5076351;28;20823;-84
2023/12/20 07:34:00;;;;;;;26.92;5.65;;;;;;;;;;5063141;28;20043;-84
2023/12/20 07:36:45;;;;;;;20.23;4.63;;;;;;;;;;5059510;28;20039;-84
2023/12/20 07:39:30;;;;;;;19.20;5.45;;;;;;;;;;5059319;28;20400;-84
2023/12/20 07:42:14;;;;;;;28.10;3.95;;;;;;;;;;5061135;28;20687;-84
2023/12/20 07:44:59;;;;;;;21.77;3.80;;;;;;;;;;5059382;28;20043;-84
2023/12/20 07:47:44;;;;;;;25.58;5.30;;;;;;;;;;5068796;28;20089;-84
2023/12/20 07:50:29;;;;;;;21.27;4.57;;;;;;;;;;5072541;28;20112;-85
2023/12/20 07:53:13;;;;;;;25.45;4.25;;;;;;;;;;5065803;28;20048;-83
2023/12/20 07:55:58;;;;;;;16.15;3.38;;;;;;;;;;5060785;28;20141;-84
2023/12/20 07:58:42;;;;;;;24.17;4.40;;;;;;;;;;5085916;28;20449;-84
2023/12/20 08:01:27;;;;;;;28.90;5.32;;;;;;;;;;5073416;28;20181;-84
2023/12/20 08:04:12;;;;;;;26.38;4.25;;;;;;;;;;5067502;28;20032;-82
2023/12/20 08:06:56;;;;;;;30.15;5.90;;;;;;;;;;5063433;28;20093;-84
2023/12/20 08:09:41;;;;;;;23.23;4.10;;;;;;;;;;5066851;28;20048;-83
2023/12/20 08:12:27;;;;;;;27.70;4.30;;;;;;;;;;5072276;28;20047;-83
2023/12/20 08:15:12;;;;;;;27.42;5.97;;;;;;;;;;5070598;28;20087;-84
2023/12/20 08:17:57;;;;;;;27.45;5.07;;;;;;;;;;5069129;28;20045;-84
2023/12/20 08:20:41;;;;;;;16.80;3.25;;;;;;;;;;5069764;28;20043;-84
2023/12/20 08:23:26;;;;;;;20.55;4.13;;;;;;;;;;5071653;28;20062;-84
2023/12/20 08:26:11;;;;;;;22.50;3.92;;;;;;;;;;5086151;28;20150;-84
2023/12/20 08:28:55;;;;;;;19.35;2.85;;;;;;;;;;5073646;28;20119;-84
2023/12/20 08:31:40;;;;;;;18.55;3.08;;;;;;;;;;5073554;28;20055;-84
2023/12/20 08:34:24;;;;;;;8.88;1.95;;;;;;;;;;5072798;28;20456;-84
2023/12/20 08:37:09;;;;;;;20.55;4.30;;;;;;;;;;5072983;28;20138;-84
2023/12/20 08:39:53;;;;;;;13.90;2.30;;;;;;;;;;5073310;28;20039;-84
2023/12/20 08:42:38;;;;;;;19.25;3.35;;;;;;;;;;5086816;28;20055;-84
2023/12/20 08:45:23;;;;;;;15.02;2.40;;;;;;;;;;5072515;28;20067;-85
2023/12/20 08:48:08;;;;;;;12.75;2.55;;;;;;;;;;5086006;28;20106;-84
2023/12/20 08:50:52;;;;;;;19.40;3.00;;;;;;;;;;5073262;28;20078;-86
2023/12/20 08:53:38;;;;;;;19.73;3.75;;;;;;;;;;5072807;28;20094;-85
2023/12/20 08:56:22;;;;;;;20.48;2.90;;;;;;;;;;5072535;28;20498;-84
2023/12/20 08:59:07;;;;;;;20.45;3.40;;;;;;;;;;5072321;28;20056;-85
2023/12/20 09:01:54;;;;;;;23.17;4.13;;;;;;;;;;5072740;28;20101;-85
2023/12/20 09:04:39;;;;;;;24.67;4.35;;;;;;;;;;5086290;28;20042;-84
2023/12/20 09:07:24;;;;;;;18.40;4.20;;;;;;;;;;5072103;28;20031;-85
2023/12/20 09:10:09;;;;;;;19.00;3.70;;;;;;;;;;5072275;28;20086;-84
2023/12/20 09:12:56;;;;;;;19.60;3.47;;;;;;;;;;5072832;28;20446;-84
2023/12/20 09:15:40;;;;;;;18.70;3.33;;;;;;;;;;5072630;28;20400;-85
2023/12/20 09:18:25;;;;;;;19.77;3.58;;;;;;;;;;5072137;28;20159;-84
2023/12/20 09:21:09;;;;;;;22.20;3.58;;;;;;;;;;5071870;28;20058;-84
2023/12/20 09:23:54;;;;;;;20.02;3.17;;;;;;;;;;5072631;28;20085;-86
2023/12/20 09:26:39;;;;;;;21.55;3.65;;;;;;;;;;5072610;28;20035;-86
2023/12/20 09:29:24;;;;;;;6.78;1.83;;;;;;;;;;5085188;28;20159;-84
2023/12/20 09:32:09;;;;;;;8.07;1.52;;;;;;;;;;5072145;28;20135;-84
2023/12/20 09:34:53;;;;;;;11.32;1.77;;;;;;;;;;5072451;28;20040;-86
2023/12/20 09:37:41;;;;;;;9.65;1.05;;;;;;;;;;5085580;28;20043;-85
2023/12/20 09:40:26;;;;;;;10.18;1.58;;;;;;;;;;5071819;28;20086;-85
2023/12/20 09:43:13;;;;;;;11.93;1.30;;;;;;;;;;5071800;28;20044;-83
2023/12/20 09:46:02;;;;;;;5.90;1.45;;;;;;;;;;5072266;28;20484;-85
2023/12/20 09:48:46;;;;;;;6.07;1.27;;;;;;;;;;5072116;28;20135;-86
2023/12/20 09:51:32;;;;;;;8.07;1.95;;;;;;;;;;5071707;28;20089;-85
2023/12/20 09:54:20;;;;;;;5.05;1.00;;;;;;;;;;5071631;28;20090;-85
2023/12/20 09:57:04;;;;;;;9.35;1.40;;;;;;;;;;5072131;28;20051;-86
2023/12/20 09:59:49;;;;;;;8.63;1.65;;;;;;;;;;5072216;28;20036;-85
2023/12/20 10:02:35;;;;;;;14.85;2.28;;;;;;;;;;5071445;28;20070;-86
2023/12/20 10:05:21;;;;;;;9.50;1.55;;;;;;;;;;5071153;28;20038;-85
2023/12/20 10:08:05;;;;;;;8.98;1.60;;;;;;;;;;5072206;28;20117;-86
2023/12/20 10:10:50;;;;;;;8.98;1.73;;;;;;;;;;5071873;28;20492;-86
2023/12/20 10:13:39;;;;;;;11.57;1.73;;;;;;;;;;5071557;28;20039;-86
2023/12/20 10:16:25;;;;;;;9.10;1.48;;;;;;;;;;5071444;28;20496;-85
2023/12/20 10:19:10;;;;;;;12.23;1.25;;;;;;;;;;5071804;28;20093;-85
2023/12/20 10:21:55;;;;;;;8.18;1.70;;;;;;;;;;5071953;28;20070;-85
2023/12/20 10:24:40;;;;;;;13.82;1.70;;;;;;;;;;5071454;28;20036;-86
2023/12/20 10:27:25;;;;;;;7.38;1.85;;;;;;;;;;5071148;28;20043;-85
2023/12/20 10:30:10;;;;;;;14.00;2.10;;;;;;;;;;5072000;28;20044;-85
2023/12/20 10:32:55;;;;;;;10.13;2.13;;;;;;;;;;5071755;28;20460;-85
2023/12/20 10:35:40;;;;;;;9.93;2.03;;;;;;;;;;5071332;28;20048;-86
2023/12/20 10:38:25;;;;;;;15.75;1.90;;;;;;;;;;5071219;28;20036;-85
2023/12/20 10:41:10;;;;;;;10.43;1.48;;;;;;;;;;5071543;28;20530;-85
2023/12/20 10:44:05;;;;;;;7.50;1.55;;;;;;;;;;5071781;28;20495;-85
2023/12/20 10:46:51;;;;;;;16.98;2.05;;;;;;;;;;5071737;28;20502;-86
2023/12/20 10:49:37;;;;;;;9.63;1.85;;;;;;;;;;5071180;28;20093;-85
2023/12/20 10:52:24;;;;;;;11.13;1.85;;;;;;;;;;5070866;28;20044;-84
2023/12/20 10:55:09;;;;;;;15.25;2.60;;;;;;;;;;5071467;28;20075;-86
2023/12/20 10:58:01;;;;;;;7.38;1.48;;;;;;;;;;5071782;28;20082;-85
2023/12/20 11:00:46;;;;;;;13.48;1.52;;;;;;;;;;5071198;28;20590;-85
2023/12/20 11:03:33;;;;;;;10.65;2.08;;;;;;;;;;5071085;28;20420;-85
2023/12/20 11:06:27;;;;;;;9.38;1.90;;;;;;;;;;5060303;28;20483;-85
2023/12/20 11:09:24;;;;;;;9.73;2.22;;;;;;;;;;5071389;28;20082;-85
2023/12/20 11:12:33;;;;;;;10.27;1.90;;;;;;;;;;5071328;28;20446;-85
2023/12/20 11:15:18;;;;;;;10.30;1.92;;;;;;;;;;5071426;28;20098;-85
2023/12/20 11:18:04;;;;;;;11.70;1.77;;;;;;;;;;5073762;28;20542;-86
2023/12/20 11:20:49;;;;;;;7.25;1.20;;;;;;;;;;5074670;28;20049;-85
2023/12/20 11:23:34;;;;;;;13.90;2.13;;;;;;;;;;5074377;28;20051;-85
2023/12/20 11:26:23;;;;;;;9.90;2.00;;;;;;;;;;5074678;28;20039;-86
2023/12/20 11:29:26;;;;;;;14.20;2.95;;;;;;;;;;5074663;28;20097;-85
2023/12/20 11:32:29;;;;;;;8.07;2.25;;;;;;;;;;5074861;28;20043;-86
2023/12/20 11:35:13;;;;;;;11.93;1.80;;;;;;;;;;5063513;28;20495;-85
2023/12/20 11:37:58;;;;;;;15.95;2.50;;;;;;;;;;5074455;28;20138;-86
2023/12/20 11:40:43;;;;;;;17.77;2.40;;;;;;;;;;5074050;28;20103;-86
2023/12/20 11:43:32;;;;;;;15.68;2.58;;;;;;;;;;5074024;28;20043;-84
2023/12/20 11:46:17;;;;;;;15.65;2.60;;;;;;;;;;5074112;28;20146;-85
2023/12/20 11:49:01;;;;;;;14.60;2.05;;;;;;;;;;5060901;28;20112;-85
2023/12/20 11:51:46;;;;;;;11.52;2.17;;;;;;;;;;5073760;28;20070;-86
2023/12/20 11:54:30;;;;;;;14.88;2.10;;;;;;;;;;5073868;28;20043;-86
2023/12/20 11:57:15;;;;;;;15.15;2.47;;;;;;;;;;5074057;28;20031;-85
2023/12/20 12:00:00;;;;;;;19.38;2.85;;;;;;;;;;5074355;28;20035;-86
2023/12/20 12:02:55;;;;;;;15.68;2.75;;;;;;;;;;5073655;28;20071;-85
2023/12/20 12:05:39;;;;;;;12.82;2.10;;;;;;;;;;5073477;28;20031;-85
2023/12/20 12:08:24;;;;;;;13.50;2.38;;;;;;;;;;5074113;28;20090;-85
2023/12/20 12:11:09;;;;;;;15.07;2.13;;;;;;;;;;5074057;28;20479;-86
2023/12/20 12:13:53;;;;;;;12.65;1.90;;;;;;;;;;5073572;28;20048;-86
2023/12/20 12:16:38;;;;;;;13.85;2.58;;;;;;;;;;5073463;28;20055;-86
2023/12/20 12:19:23;;;;;;;12.38;2.30;;;;;;;;;;5074002;28;20048;-85
2023/12/20 12:22:15;;;;;;;17.50;2.50;;;;;;;;;;5073830;28;20051;-85
2023/12/20 12:25:00;;;;;;;9.38;1.80;;;;;;;;;;5073796;28;20106;-86
2023/12/20 12:27:45;;;;;;;15.70;2.40;;;;;;;;;;5072989;28;20086;-85
2023/12/20 12:30:30;;;;;;;11.30;2.20;;;;;;;;;;5072997;28;20527;-82
2023/12/20 12:33:16;;;;;;;12.38;2.63;;;;;;;;;;5073553;28;20047;-84
2023/12/20 12:36:01;;;;;;;12.57;2.15;;;;;;;;;;5073421;28;20044;-84
2023/12/20 12:38:46;;;;;;;14.30;2.92;;;;;;;;;;5073048;28;20484;-84
2023/12/20 12:41:30;;;;;;;12.57;1.95;;;;;;;;;;5073155;28;20450;-84
2023/12/20 12:44:15;;;;;;;15.52;3.13;;;;;;;;;;5073347;28;20035;-84
2023/12/20 12:46:59;;;;;;;13.55;2.55;;;;;;;;;;5073246;28;20114;-84
2023/12/20 12:49:45;;;;;;;10.73;2.90;;;;;;;;;;5072961;28;20044;-84
2023/12/20 12:52:31;;;;;;;18.02;2.95;;;;;;;;;;5073172;28;20039;-84
2023/12/20 12:55:15;;;;;;;14.93;2.17;;;;;;;;;;5072960;28;20506;-84
2023/12/20 12:58:00;;;;;;;14.13;2.33;;;;;;;;;;5072979;28;20044;-84
2023/12/20 13:00:44;;;;;;;16.42;2.08;;;;;;;;;;5072356;28;20035;-84
2023/12/20 13:03:29;;;;;;;16.17;3.13;;;;;;;;;;5073003;28;20074;-84
2023/12/20 13:06:13;;;;;;;17.85;4.00;;;;;;;;;;5073098;28;20054;-84
2023/12/20 13:08:58;;;;;;;15.15;2.67;;;;;;;;;;5085556;28;20115;-84
2023/12/20 13:11:42;;;;;;;12.18;2.20;;;;;;;;;;5072311;28;20409;-84
2023/12/20 13:14:27;;;;;;;13.55;2.88;;;;;;;;;;5072595;28;20463;-84
2023/12/20 13:17:11;;;;;;;19.30;2.15;;;;;;;;;;5072681;28;20066;-84
2023/12/20 13:19:56;;;;;;;9.57;1.73;;;;;;;;;;5072185;28;20596;-84
2023/12/20 13:22:40;;;;;;;16.55;2.20;;;;;;;;;;5071884;28;20040;-84
2023/12/20 13:25:25;;;;;;;13.90;2.15;;;;;;;;;;5072596;28;20048;-84
2023/12/20 13:28:10;;;;;;;14.13;2.03;;;;;;;;;;5072585;28;20044;-84
2023/12/20 13:30:54;;;;;;;11.45;1.63;;;;;;;;;;5071788;28;20086;-84
2023/12/20 13:33:40;;;;;;;8.57;2.22;;;;;;;;;;5072401;28;20040;-83
2023/12/20 13:36:25;;;;;;;13.43;2.15;;;;;;;;;;5072235;28;20550;-84
2023/12/20 13:39:10;;;;;;;12.18;2.08;;;;;;;;;;5072417;28;20428;-84
2023/12/20 13:41:54;;;;;;;15.43;2.88;;;;;;;;;;5070976;28;20063;-84
2023/12/20 13:44:39;;;;;;;9.90;2.03;;;;;;;;;;5072025;28;20047;-83
2023/12/20 13:47:23;;;;;;;16.42;2.22;;;;;;;;;;5071945;28;20043;-84
2023/12/20 13:50:09;;;;;;;9.85;1.50;;;;;;;;;;5072180;28;20131;-84
2023/12/20 13:52:53;;;;;;;14.23;1.70;;;;;;;;;;5071785;28;20044;-84
2023/12/20 13:55:38;;;;;;;7.55;1.42;;;;;;;;;;5072035;28;20047;-84
2023/12/20 13:58:23;;;;;;;13.80;2.33;;;;;;;;;;5072208;28;20040;-84
2023/12/20 14:01:08;;;;;;;6.55;1.30;;;;;;;;;;5071949;28;20040;-85
2023/12/20 14:03:52;;;;;;;9.48;2.22;;;;;;;;;;5071440;28;20120;-84
2023/12/20 14:06:37;;;;;;;7.88;1.67;;;;;;;;;;5072121;28;20044;-84
2023/12/20 14:09:21;;;;;;;12.25;1.90;;;;;;;;;;5071848;28;20560;-84
2023/12/20 14:12:06;;;;;;;8.32;1.70;;;;;;;;;;5071322;28;20447;-85
2023/12/20 14:14:51;;;;;;;11.57;1.92;;;;;;;;;;5071602;28;20036;-84
2023/12/20 14:17:36;;;;;;;13.95;2.42;;;;;;;;;;5071815;28;20480;-85
2023/12/20 14:20:20;;;;;;;10.98;2.17;;;;;;;;;;5072119;28;20177;-85
2023/12/20 14:23:05;;;;;;;13.82;1.75;;;;;;;;;;5071390;28;20523;-85
2023/12/20 14:25:49;;;;;;;9.82;2.65;;;;;;;;;;5084406;28;20048;-85
2023/12/20 14:28:33;;;;;;;11.23;2.10;;;;;;;;;;5071920;28;20074;-85
2023/12/20 14:31:18;;;;;;;11.68;1.77;;;;;;;;;;5071668;28;20124;-86
2023/12/20 14:34:03;;;;;;;9.05;1.77;;;;;;;;;;5071406;28;20043;-85
2023/12/20 14:36:48;;;;;;;6.82;1.38;;;;;;;;;;5071273;28;20048;-84
2023/12/20 14:39:33;;;;;;;8.13;1.67;;;;;;;;;;5071605;28;20043;-85
2023/12/20 14:42:17;;;;;;;12.32;2.58;;;;;;;;;;5071756;28;20040;-84
2023/12/20 14:45:02;;;;;;;11.82;2.35;;;;;;;;;;5071041;28;20565;-87
2023/12/20 14:47:47;;;;;;;10.70;1.95;;;;;;;;;;5071830;28;20047;-83
2023/12/20 14:50:32;;;;;;;11.02;2.00;;;;;;;;;;5071502;28;20078;-86
2023/12/20 14:53:17;;;;;;;4.97;1.85;;;;;;;;;;5073742;28;20154;-84
2023/12/20 14:56:02;;;;;;;8.75;1.67;;;;;;;;;;5062830;28;20055;-87
2023/12/20 14:58:47;;;;;;;7.97;2.20;;;;;;;;;;5088344;28;20162;-87
2023/12/20 15:01:32;;;;;;;9.05;2.00;;;;;;;;;;5075015;28;20043;-85
2023/12/20 15:04:16;;;;;;;11.82;2.20;;;;;;;;;;5074962;28;20044;-85
2023/12/20 15:07:01;;;;;;;12.15;2.05;;;;;;;;;;5073699;28;20059;-85
2023/12/20 15:09:47;;;;;;;15.32;2.00;;;;;;;;;;5068719;28;20054;-86
2023/12/20 15:12:33;;;;;;;8.50;2.03;;;;;;;;;;5084080;28;20531;-83
2023/12/20 15:15:19;;;;;;;11.07;1.63;;;;;;;;;;5061835;28;20524;-87
2023/12/20 15:18:04;;;;;;;12.10;1.83;;;;;;;;;;5068580;28;20043;-85
2023/12/20 15:20:50;;;;;;;11.50;1.75;;;;;;;;;;5065780;28;20051;-85
2023/12/20 15:23:34;;;;;;;12.82;2.38;;;;;;;;;;5060207;28;20079;-90
2023/12/20 15:26:19;;;;;;;15.27;3.45;;;;;;;;;;5065303;28;20067;-85
2023/12/20 15:29:04;;;;;;;6.97;2.28;;;;;;;;;;5069496;28;20039;-85
2023/12/20 15:31:49;;;;;;;14.80;2.72;;;;;;;;;;5068085;28;20073;-87
2023/12/20 15:34:33;;;;;;;13.73;2.95;;;;;;;;;;5066657;28;20094;-86
2023/12/20 15:37:18;;;;;;;12.55;2.45;;;;;;;;;;5061878;28;20085;-87
2023/12/20 15:40:03;;;;;;;14.65;2.95;;;;;;;;;;5067326;28;20066;-88
2023/12/20 15:42:47;;;;;;;14.45;2.58;;;;;;;;;;5085973;28;20538;-88
2023/12/20 15:45:32;;;;;;;19.20;2.70;;;;;;;;;;5070965;28;20039;-87
2023/12/20 15:48:18;;;;;;;17.33;2.63;;;;;;;;;;5062939;28;20109;-86
2023/12/20 15:51:06;;;;;;;16.58;3.13;;;;;;;;;;5076507;28;20044;-88
2023/12/20 15:53:51;;;;;;;16.48;2.75;;;;;;;;;;5070730;28;20039;-86
2023/12/20 15:56:36;;;;;;;20.85;3.40;;;;;;;;;;5072521;28;20047;-88
2023/12/20 15:59:21;;;;;;;12.23;2.65;;;;;;;;;;5072343;28;20044;-86
2023/12/20 16:02:06;;;;;;;18.77;2.78;;;;;;;;;;5071883;28;20098;-88
2023/12/20 16:04:51;;;;;;;21.95;3.90;;;;;;;;;;5071500;28;20071;-88
2023/12/20 16:07:35;;;;;;;22.77;3.33;;;;;;;;;;5072372;28;20036;-87
2023/12/20 16:10:20;;;;;;;11.60;2.97;;;;;;;;;;5071861;28;20086;-87
2023/12/20 16:13:05;;;;;;;11.60;2.55;;;;;;;;;;5060368;28;20585;-86
2023/12/20 16:15:49;;;;;;;13.20;2.33;;;;;;;;;;5085355;28;20154;-87